createdAt,value
2017-11-26T00:00:34.333Z,1015.35
2017-11-26T00:01:36.209Z,1015.38
2017-11-26T00:02:38.090Z,1015.33
2017-11-26T00:03:39.963Z,1015.35
2017-11-26T00:04:41.779Z,1015.34
2017-11-26T00:05:43.594Z,1015.37
2017-11-26T00:06:45.478Z,1015.34
2017-11-26T00:07:47.361Z,1015.33
2017-11-26T00:08:49.234Z,1015.40
2017-11-26T00:10:03.382Z,1015.33
2017-11-26T00:11:05.258Z,1015.33
2017-11-26T00:12:07.136Z,1015.38
2017-11-26T00:13:09.015Z,1015.37
2017-11-26T00:14:10.831Z,1015.37
2017-11-26T00:15:12.649Z,1015.37
2017-11-26T00:16:14.540Z,1015.40
2017-11-26T00:17:16.433Z,1015.37
2017-11-26T00:18:18.284Z,1015.33
2017-11-26T00:19:32.433Z,1015.37
2017-11-26T00:20:34.308Z,1015.40
2017-11-26T00:21:36.200Z,1015.41
2017-11-26T00:22:38.077Z,1015.42
2017-11-26T00:23:39.893Z,1015.41
2017-11-26T00:24:41.709Z,1015.42
2017-11-26T00:25:43.593Z,1015.45
2017-11-26T00:26:45.472Z,1015.51
2017-11-26T00:27:47.378Z,1015.46
2017-11-26T00:29:01.500Z,1015.47
2017-11-26T00:30:03.382Z,1015.47
2017-11-26T00:31:05.256Z,1015.50
2017-11-26T00:32:07.146Z,1015.48
2017-11-26T00:33:08.964Z,1015.47
2017-11-26T00:34:10.779Z,1015.45
2017-11-26T00:35:12.657Z,1015.45
2017-11-26T00:36:14.534Z,1015.48
2017-11-26T00:37:16.410Z,1015.54
2017-11-26T00:38:30.559Z,1015.54
2017-11-26T00:39:32.433Z,1015.60
2017-11-26T00:40:34.310Z,1015.58
2017-11-26T00:41:36.185Z,1015.59
2017-11-26T00:42:37.999Z,1015.60
2017-11-26T00:43:39.821Z,1015.56
2017-11-26T00:44:41.697Z,1015.54
2017-11-26T00:45:43.573Z,1015.56
2017-11-26T00:46:45.450Z,1015.58
2017-11-26T00:47:59.597Z,1015.62
2017-11-26T00:49:01.479Z,1015.58
2017-11-26T00:50:03.352Z,1015.60
2017-11-26T00:51:05.225Z,1015.64
2017-11-26T00:52:07.039Z,1015.63
2017-11-26T00:53:08.853Z,1015.65
2017-11-26T00:54:10.729Z,1015.66
2017-11-26T00:55:12.608Z,1015.71
2017-11-26T00:56:14.483Z,1015.78
2017-11-26T00:57:28.633Z,1015.80
2017-11-26T00:58:30.514Z,1015.77
2017-11-26T00:59:32.389Z,1015.81
2017-11-26T01:00:34.265Z,1015.80
2017-11-26T01:01:36.081Z,1015.83
2017-11-26T01:02:37.898Z,1015.81
2017-11-26T01:03:39.779Z,1015.86
2017-11-26T01:04:41.657Z,1015.89
2017-11-26T01:05:43.535Z,1015.88
2017-11-26T01:06:57.682Z,1015.96
2017-11-26T01:07:59.558Z,1015.95
2017-11-26T01:09:01.439Z,1016.03
2017-11-26T01:10:03.313Z,1016.05
2017-11-26T01:11:05.133Z,1016.14
2017-11-26T01:12:06.949Z,1016.14
2017-11-26T01:13:08.826Z,1016.15
2017-11-26T01:14:10.704Z,1016.18
2017-11-26T01:15:12.580Z,1016.18
2017-11-26T01:16:26.777Z,1016.21
2017-11-26T01:17:28.654Z,1016.21
2017-11-26T01:18:30.530Z,1016.24
2017-11-26T01:19:32.406Z,1016.23
2017-11-26T01:20:34.223Z,1016.26
2017-11-26T01:21:36.034Z,1016.26
2017-11-26T01:22:37.922Z,1016.27
2017-11-26T01:23:39.800Z,1016.28
2017-11-26T01:24:41.676Z,1016.32
2017-11-26T01:25:55.848Z,1016.31
2017-11-26T01:26:57.702Z,1016.34
2017-11-26T01:27:59.586Z,1016.35
2017-11-26T01:29:01.464Z,1016.36
2017-11-26T01:30:03.279Z,1016.36
2017-11-26T01:31:05.093Z,1016.34
2017-11-26T01:32:06.979Z,1016.37
2017-11-26T01:33:08.854Z,1016.39
2017-11-26T01:34:10.731Z,1016.41
2017-11-26T01:35:24.878Z,1016.39
2017-11-26T01:36:26.754Z,1016.42
2017-11-26T01:37:28.632Z,1016.44
2017-11-26T01:38:30.511Z,1016.41
2017-11-26T01:39:32.327Z,1016.40
2017-11-26T01:40:34.140Z,1016.37
2017-11-26T01:41:36.022Z,1016.39
2017-11-26T01:42:37.900Z,1016.41
2017-11-26T01:43:39.776Z,1016.39
2017-11-26T01:44:53.971Z,1016.35
2017-11-26T01:45:55.850Z,1016.36
2017-11-26T01:46:57.728Z,1016.41
2017-11-26T01:47:59.608Z,1016.37
2017-11-26T01:49:01.423Z,1016.33
2017-11-26T01:50:03.240Z,1016.41
2017-11-26T01:51:05.118Z,1016.42
2017-11-26T01:52:06.996Z,1016.36
2017-11-26T01:53:08.875Z,1016.42
2017-11-26T01:54:23.025Z,1016.44
2017-11-26T01:55:24.902Z,1016.34
2017-11-26T01:56:26.785Z,1016.39
2017-11-26T01:57:28.662Z,1016.35
2017-11-26T01:58:30.477Z,1016.34
2017-11-26T01:59:32.291Z,1016.31
2017-11-26T02:00:34.171Z,1016.41
2017-11-26T02:01:36.051Z,1016.38
2017-11-26T02:02:37.929Z,1016.39
2017-11-26T02:03:52.077Z,1016.42
2017-11-26T02:04:53.954Z,1016.43
2017-11-26T02:05:55.834Z,1016.40
2017-11-26T02:06:57.710Z,1016.40
2017-11-26T02:07:59.524Z,1016.38
2017-11-26T02:09:01.342Z,1016.42
2017-11-26T02:10:03.219Z,1016.40
2017-11-26T02:11:05.097Z,1016.39
2017-11-26T02:12:06.976Z,1016.37
2017-11-26T02:13:21.988Z,1016.38
2017-11-26T02:14:23.881Z,1016.40
2017-11-26T02:15:25.745Z,1016.41
2017-11-26T02:16:27.623Z,1016.42
2017-11-26T02:17:29.437Z,1016.35
2017-11-26T02:18:31.252Z,1016.36
2017-11-26T02:19:33.133Z,1016.38
2017-11-26T02:20:35.002Z,1016.38
2017-11-26T02:21:36.881Z,1016.38
2017-11-26T02:22:51.078Z,1016.38
2017-11-26T02:23:52.953Z,1016.41
2017-11-26T02:24:54.832Z,1016.35
2017-11-26T02:25:56.716Z,1016.39
2017-11-26T02:26:58.528Z,1016.39
2017-11-26T02:28:00.337Z,1016.44
2017-11-26T02:29:02.216Z,1016.49
2017-11-26T02:30:04.093Z,1016.44
2017-11-26T02:31:05.970Z,1016.43
2017-11-26T02:32:20.117Z,1016.46
2017-11-26T02:33:21.993Z,1016.44
2017-11-26T02:34:23.869Z,1016.53
2017-11-26T02:35:25.751Z,1016.54
2017-11-26T02:36:27.560Z,1016.55
2017-11-26T02:37:29.372Z,1016.60
2017-11-26T02:38:31.249Z,1016.61
2017-11-26T02:39:33.126Z,1016.65
2017-11-26T02:40:35.017Z,1016.64
2017-11-26T02:41:49.155Z,1016.69
2017-11-26T02:42:51.024Z,1016.62
2017-11-26T02:43:52.906Z,1016.65
2017-11-26T02:44:54.779Z,1016.70
2017-11-26T02:45:56.593Z,1016.70
2017-11-26T02:46:58.403Z,1016.71
2017-11-26T02:48:00.281Z,1016.77
2017-11-26T02:49:02.159Z,1016.78
2017-11-26T02:50:04.034Z,1016.83
2017-11-26T02:51:18.181Z,1016.86
2017-11-26T02:52:20.057Z,1016.84
2017-11-26T02:53:21.937Z,1016.87
2017-11-26T02:54:23.812Z,1016.86
2017-11-26T02:55:25.623Z,1016.89
2017-11-26T02:56:27.437Z,1016.90
2017-11-26T02:57:29.327Z,1016.92
2017-11-26T02:58:31.190Z,1016.91
2017-11-26T02:59:33.067Z,1016.94
2017-11-26T03:00:47.215Z,1016.96
2017-11-26T03:01:49.089Z,1016.97
2017-11-26T03:02:50.965Z,1017.00
2017-11-26T03:03:52.848Z,1016.96
2017-11-26T03:04:54.660Z,1016.98
2017-11-26T03:05:56.470Z,1017.08
2017-11-26T03:06:58.348Z,1017.03
2017-11-26T03:08:00.228Z,1017.03
2017-11-26T03:09:02.104Z,1017.08
2017-11-26T03:10:16.250Z,1017.05
2017-11-26T03:11:18.125Z,1016.98
2017-11-26T03:12:20.011Z,1017.02
2017-11-26T03:13:21.884Z,1016.96
2017-11-26T03:14:23.698Z,1016.98
2017-11-26T03:15:25.510Z,1017.00
2017-11-26T03:16:27.393Z,1016.98
2017-11-26T03:17:29.272Z,1017.00
2017-11-26T03:18:31.151Z,1017.04
2017-11-26T03:19:45.298Z,1017.07
2017-11-26T03:20:47.174Z,1017.09
2017-11-26T03:21:49.056Z,1017.04
2017-11-26T03:22:50.934Z,1017.07
2017-11-26T03:23:52.747Z,1017.07
2017-11-26T03:24:54.563Z,1017.09
2017-11-26T03:25:56.453Z,1017.16
2017-11-26T03:26:58.320Z,1017.09
2017-11-26T03:28:00.200Z,1017.13
2017-11-26T03:29:14.353Z,1017.11
2017-11-26T03:30:16.226Z,1017.14
2017-11-26T03:31:18.103Z,1017.15
2017-11-26T03:32:19.980Z,1017.10
2017-11-26T03:33:21.797Z,1017.15
2017-11-26T03:34:23.612Z,1017.18
2017-11-26T03:35:25.489Z,1017.23
2017-11-26T03:36:27.369Z,1017.23
2017-11-26T03:37:29.247Z,1017.28
2017-11-26T03:38:43.398Z,1017.29
2017-11-26T03:39:45.282Z,1017.30
2017-11-26T03:40:47.158Z,1017.31
2017-11-26T03:41:49.039Z,1017.31
2017-11-26T03:42:50.852Z,1017.29
2017-11-26T03:43:52.661Z,1017.34
2017-11-26T03:44:54.542Z,1017.36
2017-11-26T03:45:56.420Z,1017.39
2017-11-26T03:46:58.296Z,1017.36
2017-11-26T03:48:12.444Z,1017.39
2017-11-26T03:49:14.319Z,1017.40
2017-11-26T03:50:16.200Z,1017.42
2017-11-26T03:51:18.081Z,1017.44
2017-11-26T03:52:19.893Z,1017.43
2017-11-26T03:53:21.708Z,1017.48
2017-11-26T03:54:23.588Z,1017.49
2017-11-26T03:55:25.470Z,1017.49
2017-11-26T03:56:27.365Z,1017.54
2017-11-26T03:57:41.493Z,1017.51
2017-11-26T03:58:43.371Z,1017.51
2017-11-26T03:59:45.249Z,1017.50
2017-11-26T04:00:47.132Z,1017.55
2017-11-26T04:01:48.946Z,1017.52
2017-11-26T04:02:50.758Z,1017.56
2017-11-26T04:03:52.637Z,1017.57
2017-11-26T04:04:54.516Z,1017.58
2017-11-26T04:05:56.394Z,1017.55
2017-11-26T04:07:10.545Z,1017.56
2017-11-26T04:08:12.424Z,1017.59
2017-11-26T04:09:14.301Z,1017.60
2017-11-26T04:10:16.181Z,1017.61
2017-11-26T04:11:17.993Z,1017.61
2017-11-26T04:12:19.806Z,1017.60
2017-11-26T04:13:21.686Z,1017.66
2017-11-26T04:14:23.565Z,1017.70
2017-11-26T04:15:25.444Z,1017.71
2017-11-26T04:16:39.591Z,1017.72
2017-11-26T04:17:41.467Z,1017.75
2017-11-26T04:18:43.349Z,1017.75
2017-11-26T04:19:45.221Z,1017.74
2017-11-26T04:20:47.038Z,1017.76
2017-11-26T04:21:48.850Z,1017.75
2017-11-26T04:22:50.730Z,1017.77
2017-11-26T04:23:52.606Z,1017.81
2017-11-26T04:24:54.487Z,1017.81
2017-11-26T04:26:08.683Z,1017.83
2017-11-26T04:27:10.560Z,1017.79
2017-11-26T04:28:12.438Z,1017.81
2017-11-26T04:29:14.316Z,1017.82
2017-11-26T04:30:16.133Z,1017.79
2017-11-26T04:31:17.950Z,1017.79
2017-11-26T04:32:19.828Z,1017.82
2017-11-26T04:33:21.704Z,1017.83
2017-11-26T04:34:23.582Z,1017.91
2017-11-26T04:35:37.730Z,1017.90
2017-11-26T04:36:39.612Z,1017.88
2017-11-26T04:37:41.483Z,1017.84
2017-11-26T04:38:43.362Z,1017.87
2017-11-26T04:39:45.173Z,1017.88
2017-11-26T04:40:46.988Z,1017.91
2017-11-26T04:41:48.864Z,1017.88
2017-11-26T04:42:50.739Z,1017.85
2017-11-26T04:43:52.617Z,1017.83
2017-11-26T04:45:06.764Z,1017.85
2017-11-26T04:46:08.640Z,1017.79
2017-11-26T04:47:10.519Z,1017.85
2017-11-26T04:48:12.406Z,1017.81
2017-11-26T04:49:14.213Z,1017.81
2017-11-26T04:50:16.029Z,1017.82
2017-11-26T04:51:17.904Z,1017.80
2017-11-26T04:52:19.784Z,1017.81
2017-11-26T04:53:21.661Z,1017.81
2017-11-26T04:54:35.810Z,1017.80
2017-11-26T04:55:37.684Z,1017.82
2017-11-26T04:56:39.561Z,1017.82
2017-11-26T04:57:41.447Z,1017.82
2017-11-26T04:58:43.252Z,1017.84
2017-11-26T04:59:45.063Z,1017.79
2017-11-26T05:00:46.944Z,1017.84
2017-11-26T05:01:48.820Z,1017.79
2017-11-26T05:02:50.700Z,1017.81
2017-11-26T05:04:04.895Z,1017.85
2017-11-26T05:05:06.774Z,1017.82
2017-11-26T05:06:08.656Z,1017.82
2017-11-26T05:07:10.527Z,1017.81
2017-11-26T05:08:12.342Z,1017.76
2017-11-26T05:09:14.181Z,1017.81
2017-11-26T05:10:16.036Z,1017.83
2017-11-26T05:11:17.913Z,1017.87
2017-11-26T05:12:20.401Z,1017.82
2017-11-26T05:13:34.751Z,1017.82
2017-11-26T05:14:36.629Z,1017.86
2017-11-26T05:15:38.503Z,1017.85
2017-11-26T05:16:40.381Z,1017.82
2017-11-26T05:17:42.194Z,1017.86
2017-11-26T05:18:44.007Z,1017.88
2017-11-26T05:19:45.891Z,1017.83
2017-11-26T05:20:47.761Z,1017.90
2017-11-26T05:21:49.639Z,1017.87
2017-11-26T05:23:03.786Z,1017.89
2017-11-26T05:24:05.663Z,1017.88
2017-11-26T05:25:07.540Z,1017.85
2017-11-26T05:26:09.419Z,1017.88
2017-11-26T05:27:11.236Z,1017.89
2017-11-26T05:28:13.048Z,1017.84
2017-11-26T05:29:14.931Z,1017.84
2017-11-26T05:30:16.807Z,1017.82
2017-11-26T05:31:18.687Z,1017.88
2017-11-26T05:32:32.882Z,1017.89
2017-11-26T05:33:34.758Z,1017.96
2017-11-26T05:34:36.636Z,1017.97
2017-11-26T05:35:38.515Z,1018.00
2017-11-26T05:36:40.332Z,1017.99
2017-11-26T05:37:42.142Z,1018.03
2017-11-26T05:38:44.024Z,1018.04
2017-11-26T05:39:45.904Z,1018.05
2017-11-26T05:40:47.783Z,1018.08
2017-11-26T05:42:01.986Z,1018.07
2017-11-26T05:43:03.858Z,1018.07
2017-11-26T05:44:05.736Z,1018.08
2017-11-26T05:45:07.614Z,1018.11
2017-11-26T05:46:09.429Z,1018.08
2017-11-26T05:47:11.254Z,1018.11
2017-11-26T05:48:13.070Z,1018.06
2017-11-26T05:49:14.947Z,1018.07
2017-11-26T05:50:16.826Z,1018.09
2017-11-26T05:51:31.024Z,1018.10
2017-11-26T05:52:32.901Z,1018.15
2017-11-26T05:53:34.779Z,1018.16
2017-11-26T05:54:36.657Z,1018.15
2017-11-26T05:55:38.472Z,1018.15
2017-11-26T05:56:40.284Z,1018.13
2017-11-26T05:57:42.161Z,1018.16
2017-11-26T05:58:44.040Z,1018.09
2017-11-26T05:59:45.918Z,1018.13
2017-11-26T06:01:00.112Z,1018.15
2017-11-26T06:02:01.989Z,1018.12
2017-11-26T06:03:03.865Z,1018.18
2017-11-26T06:04:05.744Z,1018.17
2017-11-26T06:05:07.556Z,1018.11
2017-11-26T06:06:09.372Z,1018.16
2017-11-26T06:07:11.251Z,1018.14
2017-11-26T06:08:13.127Z,1018.15
2017-11-26T06:09:15.009Z,1018.14
2017-11-26T06:10:29.159Z,1018.16
2017-11-26T06:11:31.035Z,1018.14
2017-11-26T06:12:32.914Z,1018.18
2017-11-26T06:13:34.793Z,1018.21
2017-11-26T06:14:36.611Z,1018.24
2017-11-26T06:15:38.422Z,1018.20
2017-11-26T06:16:40.307Z,1018.18
2017-11-26T06:17:42.185Z,1018.19
2017-11-26T06:18:44.059Z,1018.22
2017-11-26T06:19:58.209Z,1018.26
2017-11-26T06:21:00.085Z,1018.24
2017-11-26T06:22:01.964Z,1018.24
2017-11-26T06:23:03.846Z,1018.25
2017-11-26T06:24:05.659Z,1018.28
2017-11-26T06:25:07.476Z,1018.33
2017-11-26T06:26:09.353Z,1018.30
2017-11-26T06:27:11.232Z,1018.30
2017-11-26T06:28:13.113Z,1018.30
2017-11-26T06:29:27.263Z,1018.35
2017-11-26T06:30:29.145Z,1018.34
2017-11-26T06:31:31.021Z,1018.41
2017-11-26T06:32:32.903Z,1018.40
2017-11-26T06:33:34.718Z,1018.39
2017-11-26T06:34:36.534Z,1018.35
2017-11-26T06:35:38.414Z,1018.37
2017-11-26T06:36:40.293Z,1018.42
2017-11-26T06:37:42.176Z,1018.41
2017-11-26T06:38:56.328Z,1018.45
2017-11-26T06:39:58.205Z,1018.37
2017-11-26T06:41:00.088Z,1018.40
2017-11-26T06:42:01.973Z,1018.37
2017-11-26T06:43:03.788Z,1018.45
2017-11-26T06:44:05.602Z,1018.43
2017-11-26T06:45:07.484Z,1018.42
2017-11-26T06:46:09.367Z,1018.43
2017-11-26T06:47:11.246Z,1018.48
2017-11-26T06:48:25.396Z,1018.51
2017-11-26T06:49:27.282Z,1018.52
2017-11-26T06:50:29.156Z,1018.47
2017-11-26T06:51:31.037Z,1018.56
2017-11-26T06:52:32.850Z,1018.50
2017-11-26T06:53:34.668Z,1018.54
2017-11-26T06:54:36.546Z,1018.55
2017-11-26T06:55:38.426Z,1018.54
2017-11-26T06:56:40.309Z,1018.51
2017-11-26T06:57:54.460Z,1018.50
2017-11-26T06:58:56.341Z,1018.56
2017-11-26T06:59:58.219Z,1018.54
2017-11-26T07:01:00.102Z,1018.60
2017-11-26T07:02:01.920Z,1018.58
2017-11-26T07:03:03.735Z,1018.62
2017-11-26T07:04:05.619Z,1018.64
2017-11-26T07:05:07.499Z,1018.67
2017-11-26T07:06:09.379Z,1018.68
2017-11-26T07:07:23.532Z,1018.69
2017-11-26T07:08:25.412Z,1018.72
2017-11-26T07:09:27.292Z,1018.71
2017-11-26T07:10:29.180Z,1018.69
2017-11-26T07:11:30.997Z,1018.75
2017-11-26T07:12:32.814Z,1018.77
2017-11-26T07:13:34.696Z,1018.77
2017-11-26T07:14:36.578Z,1018.76
2017-11-26T07:15:38.458Z,1018.81
2017-11-26T07:16:52.612Z,1018.81
2017-11-26T07:17:54.488Z,1018.80
2017-11-26T07:18:56.370Z,1018.85
2017-11-26T07:19:58.260Z,1018.80
2017-11-26T07:21:00.073Z,1018.83
2017-11-26T07:22:01.891Z,1018.79
2017-11-26T07:23:03.773Z,1018.80
2017-11-26T07:24:05.656Z,1018.81
2017-11-26T07:25:07.538Z,1018.86
2017-11-26T07:26:21.693Z,1018.84
2017-11-26T07:27:23.571Z,1018.87
2017-11-26T07:28:25.453Z,1018.90
2017-11-26T07:29:27.336Z,1018.88
2017-11-26T07:30:29.154Z,1018.90
2017-11-26T07:31:30.972Z,1018.94
2017-11-26T07:32:32.852Z,1018.96
2017-11-26T07:33:34.739Z,1018.93
2017-11-26T07:34:36.621Z,1018.95
2017-11-26T07:35:50.774Z,1018.94
2017-11-26T07:36:52.655Z,1018.91
2017-11-26T07:37:54.537Z,1018.91
2017-11-26T07:38:56.423Z,1018.91
2017-11-26T07:39:58.241Z,1018.94
2017-11-26T07:41:00.057Z,1018.93
2017-11-26T07:42:01.944Z,1019.00
2017-11-26T07:43:03.826Z,1018.99
2017-11-26T07:44:05.710Z,1018.99
2017-11-26T07:45:19.860Z,1019.04
2017-11-26T07:46:21.739Z,1019.03
2017-11-26T07:47:23.621Z,1019.06
2017-11-26T07:48:25.504Z,1019.03
2017-11-26T07:49:27.322Z,1019.04
2017-11-26T07:50:29.141Z,1019.03
2017-11-26T07:51:31.040Z,1019.07
2017-11-26T07:52:32.924Z,1019.06
2017-11-26T07:53:34.808Z,1019.10
2017-11-26T07:54:48.961Z,1019.11
2017-11-26T07:55:50.844Z,1019.10
2017-11-26T07:56:52.720Z,1019.11
2017-11-26T07:57:54.607Z,1019.10
2017-11-26T07:58:56.427Z,1019.10
2017-11-26T07:59:58.259Z,1019.10
2017-11-26T08:01:00.146Z,1019.14
2017-11-26T08:02:02.052Z,1019.15
2017-11-26T08:03:03.988Z,1019.17
2017-11-26T08:04:18.229Z,1019.19
2017-11-26T08:05:20.153Z,1019.18
2017-11-26T08:06:22.059Z,1019.17
2017-11-26T08:07:23.976Z,1019.12
2017-11-26T08:08:25.799Z,1019.14
2017-11-26T08:09:27.651Z,1019.17
2017-11-26T08:10:29.535Z,1019.14
2017-11-26T08:11:31.427Z,1019.14
2017-11-26T08:12:33.324Z,1019.13
2017-11-26T08:13:47.541Z,1019.14
2017-11-26T08:14:49.445Z,1019.14
2017-11-26T08:15:51.380Z,1019.19
2017-11-26T08:16:53.289Z,1019.20
2017-11-26T08:17:55.134Z,1019.21
2017-11-26T08:18:56.987Z,1019.19
2017-11-26T08:19:58.914Z,1019.19
2017-11-26T08:21:00.819Z,1019.23
2017-11-26T08:22:02.756Z,1019.26
2017-11-26T08:23:16.969Z,1019.28
2017-11-26T08:24:18.851Z,1019.27
2017-11-26T08:25:20.737Z,1019.28
2017-11-26T08:26:22.631Z,1019.24
2017-11-26T08:27:24.449Z,1019.26
2017-11-26T08:28:26.278Z,1019.22
2017-11-26T08:29:28.154Z,1019.25
2017-11-26T08:30:30.032Z,1019.24
2017-11-26T08:31:31.942Z,1019.26
2017-11-26T08:32:46.098Z,1019.27
2017-11-26T08:33:47.977Z,1019.24
2017-11-26T08:34:49.909Z,1019.26
2017-11-26T08:35:51.768Z,1019.26
2017-11-26T08:36:53.587Z,1019.27
2017-11-26T08:37:55.405Z,1019.29
2017-11-26T08:38:57.288Z,1019.22
2017-11-26T08:39:59.172Z,1019.25
2017-11-26T08:41:01.052Z,1019.27
2017-11-26T08:42:15.215Z,1019.25
2017-11-26T08:43:17.434Z,1019.30
2017-11-26T08:44:19.323Z,1019.28
2017-11-26T08:45:21.206Z,1019.23
2017-11-26T08:46:23.029Z,1019.20
2017-11-26T08:47:24.845Z,1019.25
2017-11-26T08:48:26.727Z,1019.28
2017-11-26T08:49:28.611Z,1019.30
2017-11-26T08:50:30.491Z,1019.26
2017-11-26T08:51:44.650Z,1019.31
2017-11-26T08:52:46.526Z,1019.37
2017-11-26T08:53:48.406Z,1019.34
2017-11-26T08:54:50.300Z,1019.34
2017-11-26T08:55:52.128Z,1019.35
2017-11-26T08:56:53.941Z,1019.32
2017-11-26T08:57:55.852Z,1019.37
2017-11-26T08:58:57.729Z,1019.40
2017-11-26T08:59:59.659Z,1019.41
2017-11-26T09:01:13.830Z,1019.41
2017-11-26T09:02:15.725Z,1019.41
2017-11-26T09:03:17.607Z,1019.42
2017-11-26T09:04:19.491Z,1019.44
2017-11-26T09:05:21.310Z,1019.41
2017-11-26T09:06:23.128Z,1019.46
2017-11-26T09:07:25.017Z,1019.46
2017-11-26T09:08:26.895Z,1019.53
2017-11-26T09:09:28.782Z,1019.52
2017-11-26T09:10:43.094Z,1019.53
2017-11-26T09:11:44.984Z,1019.56
2017-11-26T09:12:46.872Z,1019.60
2017-11-26T09:13:48.770Z,1019.66
2017-11-26T09:14:50.578Z,1019.63
2017-11-26T09:15:52.412Z,1019.63
2017-11-26T09:16:54.231Z,1019.67
2017-11-26T09:17:56.113Z,1019.69
2017-11-26T09:18:57.995Z,1019.69
2017-11-26T09:20:12.148Z,1019.72
2017-11-26T09:21:14.032Z,1019.71
2017-11-26T09:22:15.908Z,1019.72
2017-11-26T09:23:17.793Z,1019.71
2017-11-26T09:24:19.614Z,1019.68
2017-11-26T09:25:21.433Z,1019.72
2017-11-26T09:26:23.314Z,1019.76
2017-11-26T09:27:25.207Z,1019.78
2017-11-26T09:28:27.093Z,1019.82
2017-11-26T09:29:41.306Z,1019.79
2017-11-26T09:30:43.183Z,1019.78
2017-11-26T09:31:45.063Z,1019.81
2017-11-26T09:32:46.946Z,1019.79
2017-11-26T09:33:48.796Z,1019.77
2017-11-26T09:34:50.615Z,1019.73
2017-11-26T09:35:52.499Z,1019.75
2017-11-26T09:36:54.730Z,1019.80
2017-11-26T09:37:56.637Z,1019.75
2017-11-26T09:39:10.937Z,1019.82
2017-11-26T09:40:12.815Z,1019.82
2017-11-26T09:41:14.699Z,1019.85
2017-11-26T09:42:16.577Z,1019.83
2017-11-26T09:43:18.402Z,1019.86
2017-11-26T09:44:20.230Z,1019.90
2017-11-26T09:45:22.114Z,1019.85
2017-11-26T09:46:24.011Z,1019.86
2017-11-26T09:47:25.881Z,1019.80
2017-11-26T09:48:40.034Z,1019.82
2017-11-26T09:49:41.923Z,1019.81
2017-11-26T09:50:43.805Z,1019.79
2017-11-26T09:51:45.702Z,1019.84
2017-11-26T09:52:47.522Z,1019.84
2017-11-26T09:53:49.350Z,1019.89
2017-11-26T09:54:51.234Z,1019.90
2017-11-26T09:55:53.113Z,1019.92
2017-11-26T09:56:55.001Z,1019.89
2017-11-26T09:58:09.194Z,1019.90
2017-11-26T09:59:11.088Z,1019.91
2017-11-26T10:00:13.293Z,1019.89
2017-11-26T10:01:15.193Z,1019.86
2017-11-26T10:02:17.093Z,1019.93
2017-11-26T10:03:18.892Z,1019.92
2017-11-26T10:04:20.899Z,1019.93
2017-11-26T10:05:23.116Z,1019.89
2017-11-26T10:06:25.031Z,1019.91
2017-11-26T10:07:39.606Z,1019.87
2017-11-26T10:08:41.520Z,1019.91
2017-11-26T10:09:43.397Z,1019.92
2017-11-26T10:10:45.317Z,1019.92
2017-11-26T10:11:47.664Z,1019.92
2017-11-26T10:12:49.610Z,1019.93
2017-11-26T10:13:51.497Z,1019.90
2017-11-26T10:14:53.415Z,1019.91
2017-11-26T10:15:55.421Z,1019.91
2017-11-26T10:17:09.694Z,1019.88
2017-11-26T10:18:11.583Z,1019.85
2017-11-26T10:19:13.458Z,1019.86
2017-11-26T10:20:15.342Z,1019.86
2017-11-26T10:21:17.167Z,1019.82
2017-11-26T10:22:18.987Z,1019.80
2017-11-26T10:23:20.914Z,1019.83
2017-11-26T10:24:22.817Z,1019.88
2017-11-26T10:25:24.748Z,1019.89
2017-11-26T10:26:38.894Z,1019.87
2017-11-26T10:27:40.776Z,1019.89
2017-11-26T10:28:42.666Z,1019.93
2017-11-26T10:29:44.617Z,1019.92
2017-11-26T10:30:46.472Z,1019.92
2017-11-26T10:31:48.294Z,1019.96
2017-11-26T10:32:50.204Z,1019.99
2017-11-26T10:33:52.511Z,1019.92
2017-11-26T10:34:54.527Z,1019.91
2017-11-26T10:36:08.718Z,1019.96
2017-11-26T10:37:10.603Z,1019.98
2017-11-26T10:38:12.489Z,1020.03
2017-11-26T10:39:14.373Z,1019.99
2017-11-26T10:40:16.195Z,1020.00
2017-11-26T10:41:18.018Z,1020.03
2017-11-26T10:42:19.900Z,1020.05
2017-11-26T10:43:21.790Z,1020.05
2017-11-26T10:44:23.685Z,1020.04
2017-11-26T10:45:37.829Z,1020.09
2017-11-26T10:46:39.719Z,1020.10
2017-11-26T10:47:41.611Z,1020.10
2017-11-26T10:48:43.478Z,1020.07
2017-11-26T10:49:45.297Z,1020.04
2017-11-26T10:50:47.118Z,1020.05
2017-11-26T10:51:49.048Z,1020.05
2017-11-26T10:52:50.976Z,1020.07
2017-11-26T10:53:52.862Z,1020.05
2017-11-26T10:55:07.035Z,1020.06
2017-11-26T10:56:08.919Z,1020.08
2017-11-26T10:57:10.803Z,1020.06
2017-11-26T10:58:12.687Z,1020.11
2017-11-26T10:59:14.513Z,1020.11
2017-11-26T11:00:16.338Z,1020.10
2017-11-26T11:01:18.222Z,1020.12
2017-11-26T11:02:20.129Z,1020.09
2017-11-26T11:03:22.005Z,1020.06
2017-11-26T11:04:36.159Z,1020.08
2017-11-26T11:05:38.049Z,1020.09
2017-11-26T11:06:39.934Z,1020.09
2017-11-26T11:07:41.819Z,1020.08
2017-11-26T11:08:43.643Z,1020.10
2017-11-26T11:09:45.464Z,1020.16
2017-11-26T11:10:47.354Z,1020.14
2017-11-26T11:11:49.242Z,1020.10
2017-11-26T11:12:51.095Z,1020.09
2017-11-26T11:14:05.297Z,1020.06
2017-11-26T11:15:07.185Z,1020.08
2017-11-26T11:16:09.073Z,1020.08
2017-11-26T11:17:10.966Z,1020.10
2017-11-26T11:18:12.792Z,1020.08
2017-11-26T11:19:14.611Z,1020.10
2017-11-26T11:20:16.494Z,1020.09
2017-11-26T11:21:18.385Z,1020.15
2017-11-26T11:22:20.276Z,1020.12
2017-11-26T11:23:34.429Z,1020.13
2017-11-26T11:24:36.316Z,1020.12
2017-11-26T11:25:38.228Z,1020.12
2017-11-26T11:26:40.091Z,1020.12
2017-11-26T11:27:41.916Z,1020.10
2017-11-26T11:28:43.745Z,1020.10
2017-11-26T11:29:45.628Z,1020.11
2017-11-26T11:30:47.514Z,1020.06
2017-11-26T11:31:49.413Z,1020.06
2017-11-26T11:33:03.610Z,1020.02
2017-11-26T11:34:05.494Z,1020.00
2017-11-26T11:35:07.378Z,1019.98
2017-11-26T11:36:09.290Z,1020.01
2017-11-26T11:37:11.116Z,1019.95
2017-11-26T11:38:12.940Z,1019.94
2017-11-26T11:39:14.829Z,1019.93
2017-11-26T11:40:16.720Z,1019.91
2017-11-26T11:41:18.604Z,1019.89
2017-11-26T11:42:33.104Z,1019.90
2017-11-26T11:43:34.974Z,1019.87
2017-11-26T11:44:36.867Z,1019.91
2017-11-26T11:45:38.752Z,1019.88
2017-11-26T11:46:40.571Z,1019.87
2017-11-26T11:47:42.406Z,1019.77
2017-11-26T11:48:44.604Z,1019.82
2017-11-26T11:49:46.500Z,1019.80
2017-11-26T11:50:48.729Z,1019.89
2017-11-26T11:52:03.243Z,1019.96
2017-11-26T11:53:05.425Z,1019.91
2017-11-26T11:54:07.328Z,1019.88
2017-11-26T11:55:09.535Z,1019.83
2017-11-26T11:56:11.662Z,1019.84
2017-11-26T11:57:13.514Z,1019.82
2017-11-26T11:58:15.812Z,1019.84
2017-11-26T11:59:17.736Z,1019.84
2017-11-26T12:00:19.644Z,1019.89
2017-11-26T12:01:33.798Z,1019.87
2017-11-26T12:02:35.712Z,1019.86
2017-11-26T12:03:37.602Z,1019.82
2017-11-26T12:04:39.510Z,1019.85
2017-11-26T12:05:41.651Z,1019.92
2017-11-26T12:06:43.480Z,1019.93
2017-11-26T12:07:45.386Z,1019.99
2017-11-26T12:08:47.279Z,1019.96
2017-11-26T12:09:49.169Z,1019.98
2017-11-26T12:11:03.343Z,1020.02
2017-11-26T12:12:05.242Z,1020.00
2017-11-26T12:13:07.126Z,1019.98
2017-11-26T12:14:09.354Z,1019.97
2017-11-26T12:15:11.491Z,1019.96
2017-11-26T12:16:13.656Z,1019.97
2017-11-26T12:17:15.560Z,1019.96
2017-11-26T12:18:17.444Z,1019.92
2017-11-26T12:19:19.366Z,1019.93
2017-11-26T12:20:33.877Z,1019.90
2017-11-26T12:21:35.842Z,1019.91
2017-11-26T12:22:37.743Z,1019.92
2017-11-26T12:23:39.953Z,1019.97
2017-11-26T12:24:41.748Z,1020.01
2017-11-26T12:25:43.600Z,1020.05
2017-11-26T12:26:45.519Z,1019.99
2017-11-26T12:27:47.433Z,1019.97
2017-11-26T12:28:49.314Z,1019.98
2017-11-26T12:30:03.809Z,1019.98
2017-11-26T12:31:06.024Z,1019.98
2017-11-26T12:32:07.926Z,1020.03
2017-11-26T12:33:09.813Z,1020.00
2017-11-26T12:34:11.979Z,1020.02
2017-11-26T12:35:13.759Z,1019.99
2017-11-26T12:36:15.973Z,1019.97
2017-11-26T12:37:17.821Z,1019.99
2017-11-26T12:38:19.707Z,1019.97
2017-11-26T12:39:33.872Z,1019.98
2017-11-26T12:40:35.758Z,1019.97
2017-11-26T12:41:37.641Z,1019.89
2017-11-26T12:42:39.528Z,1019.89
2017-11-26T12:43:41.350Z,1019.89
2017-11-26T12:44:43.172Z,1019.89